Time;durP1;ratioP1;P1;durP2;ratioP2;P2;SDS_P1;SDS_P2;PMS_P1;PMS_P2;Temp;Humidity;BMP_temperature;BMP_pressure;BME280_temperature;BME280_humidity;BME280_pressure;Samples;Min_cycle;Max_cycle;Signal;HPM_P1;HPM_P2
2023/08/12 00:01:12;;;;;;;13.25;7.25;;;;;;;;;;5060774;28;20035;-83
2023/08/12 00:03:37;;;;;;;16.38;7.55;;;;;;;;;;5074192;28;20024;-84
2023/08/12 00:06:05;;;;;;;12.98;7.50;;;;;;;;;;5055487;28;20095;-84
2023/08/12 00:08:32;;;;;;;13.52;6.70;;;;;;;;;;5053195;28;20665;-84
2023/08/12 00:10:58;;;;;;;12.70;6.85;;;;;;;;;;5086721;28;20447;-84
2023/08/12 00:13:23;;;;;;;15.77;7.50;;;;;;;;;;5060763;28;20103;-84
2023/08/12 00:15:49;;;;;;;19.63;8.18;;;;;;;;;;5062341;28;20029;-84
2023/08/12 00:18:15;;;;;;;21.70;10.07;;;;;;;;;;5072124;28;20020;-83
2023/08/12 00:20:40;;;;;;;26.90;9.63;;;;;;;;;;5072088;28;20049;-84
2023/08/12 00:23:05;;;;;;;22.23;8.65;;;;;;;;;;5069055;28;20012;-84
2023/08/12 00:25:31;;;;;;;18.00;8.88;;;;;;;;;;5058946;28;20028;-84
2023/08/12 00:27:56;;;;;;;17.23;9.43;;;;;;;;;;5060790;28;20136;-84
2023/08/12 00:30:21;;;;;;;21.50;9.90;;;;;;;;;;5074232;28;20028;-83
2023/08/12 00:32:47;;;;;;;20.42;9.68;;;;;;;;;;5074105;28;20020;-84
2023/08/12 00:35:12;;;;;;;19.35;9.13;;;;;;;;;;5059924;28;20020;-83
2023/08/12 00:37:40;;;;;;;17.55;9.02;;;;;;;;;;5069619;28;20078;-84
2023/08/12 00:40:06;;;;;;;28.75;11.07;;;;;;;;;;5066674;28;20039;-84
2023/08/12 00:42:31;;;;;;;20.58;9.68;;;;;;;;;;5073602;28;20078;-83
2023/08/12 00:44:57;;;;;;;21.60;9.75;;;;;;;;;;5069602;28;20124;-83
2023/08/12 00:47:25;;;;;;;17.63;8.50;;;;;;;;;;5070642;28;20031;-83
2023/08/12 00:49:50;;;;;;;16.63;7.38;;;;;;;;;;5073691;28;20472;-84
2023/08/12 00:52:17;;;;;;;17.13;8.23;;;;;;;;;;5069616;28;20021;-83
2023/08/12 00:54:42;;;;;;;15.70;6.40;;;;;;;;;;5066235;28;20096;-84
2023/08/12 00:57:08;;;;;;;16.88;7.10;;;;;;;;;;5072512;28;20114;-84
2023/08/12 00:59:34;;;;;;;15.10;6.97;;;;;;;;;;5069140;28;20095;-83
2023/08/12 01:02:03;;;;;;;13.65;6.18;;;;;;;;;;5069152;28;20009;-84
2023/08/12 01:04:28;;;;;;;12.35;5.90;;;;;;;;;;5058755;28;20074;-84
2023/08/12 01:06:54;;;;;;;10.30;5.15;;;;;;;;;;5073898;28;20126;-83
2023/08/12 01:09:22;;;;;;;13.10;5.70;;;;;;;;;;5065234;28;20480;-84
2023/08/12 01:11:55;;;;;;;17.42;5.93;;;;;;;;;;5087554;28;20107;-84
2023/08/12 01:14:20;;;;;;;9.15;4.85;;;;;;;;;;5069547;28;20024;-83
2023/08/12 01:16:49;;;;;;;12.43;6.15;;;;;;;;;;5074751;28;20052;-83
2023/08/12 01:19:35;;;;;;;13.65;5.85;;;;;;;;;;5079940;28;20016;-83
2023/08/12 01:22:01;;;;;;;12.00;5.00;;;;;;;;;;5082055;28;20033;-83
2023/08/12 01:24:37;;;;;;;12.18;5.72;;;;;;;;;;5070220;28;20020;-83
2023/08/12 01:27:03;;;;;;;16.88;6.20;;;;;;;;;;5067013;28;20090;-83
2023/08/12 01:29:28;;;;;;;13.00;5.65;;;;;;;;;;5075219;28;20031;-83
2023/08/12 01:32:25;;;;;;;11.18;5.78;;;;;;;;;;5065931;28;20039;-83
2023/08/12 01:34:57;;;;;;;14.85;5.97;;;;;;;;;;5059955;28;20058;-83
2023/08/12 01:37:24;;;;;;;11.40;6.03;;;;;;;;;;5065620;28;20487;-83
2023/08/12 01:39:49;;;;;;;11.23;5.55;;;;;;;;;;5071554;28;20046;-83
2023/08/12 01:42:16;;;;;;;11.27;5.60;;;;;;;;;;5064234;28;20103;-83
2023/08/12 01:44:42;;;;;;;14.80;5.93;;;;;;;;;;5074189;28;20156;-83
2023/08/12 01:47:09;;;;;;;10.57;5.72;;;;;;;;;;5074170;28;20028;-83
2023/08/12 01:49:34;;;;;;;10.30;5.78;;;;;;;;;;5067256;28;20016;-83
2023/08/12 01:51:59;;;;;;;12.85;5.55;;;;;;;;;;5071005;28;20337;-82
2023/08/12 01:54:24;;;;;;;17.10;6.65;;;;;;;;;;5072919;28;20409;-83
2023/08/12 01:56:53;;;;;;;13.13;6.07;;;;;;;;;;5070846;28;20108;-83
2023/08/12 01:59:21;;;;;;;12.75;6.03;;;;;;;;;;5063759;28;20020;-83
2023/08/12 02:01:46;;;;;;;11.20;6.00;;;;;;;;;;5066277;28;20055;-83
2023/08/12 02:04:11;;;;;;;12.02;5.72;;;;;;;;;;5055676;28;20020;-83
2023/08/12 02:06:36;;;;;;;11.60;5.93;;;;;;;;;;5093418;28;20095;-84
2023/08/12 02:09:02;;;;;;;11.88;6.00;;;;;;;;;;5096377;28;20388;-84
2023/08/12 02:11:27;;;;;;;13.50;5.97;;;;;;;;;;5067467;28;20021;-83
2023/08/12 02:13:53;;;;;;;13.00;5.47;;;;;;;;;;5059653;28;20032;-83
2023/08/12 02:16:18;;;;;;;11.82;5.85;;;;;;;;;;5096025;28;20020;-83
2023/08/12 02:18:44;;;;;;;11.85;6.00;;;;;;;;;;5064582;28;20021;-83
2023/08/12 02:21:09;;;;;;;13.38;5.90;;;;;;;;;;5068590;28;20070;-82
2023/08/12 02:23:34;;;;;;;12.77;5.38;;;;;;;;;;5057161;28;20021;-83
2023/08/12 02:26:00;;;;;;;10.20;5.25;;;;;;;;;;5057508;28;20020;-83
2023/08/12 02:28:25;;;;;;;12.65;5.55;;;;;;;;;;5067976;28;20024;-83
2023/08/12 02:30:54;;;;;;;9.73;5.57;;;;;;;;;;5073783;28;20027;-83
2023/08/12 02:33:22;;;;;;;10.45;5.82;;;;;;;;;;5066906;28;20463;-83
2023/08/12 02:35:47;;;;;;;16.27;6.15;;;;;;;;;;5078647;28;20056;-82
2023/08/12 02:38:12;;;;;;;10.40;5.85;;;;;;;;;;5073201;28;20020;-83
2023/08/12 02:40:40;;;;;;;8.05;4.70;;;;;;;;;;5069826;28;20493;-84
2023/08/12 02:43:05;;;;;;;10.77;5.40;;;;;;;;;;5069561;28;20377;-83
2023/08/12 02:45:34;;;;;;;9.27;5.05;;;;;;;;;;5073497;28;20024;-83
2023/08/12 02:48:03;;;;;;;7.05;4.85;;;;;;;;;;5078748;28;20452;-82
2023/08/12 02:50:28;;;;;;;10.18;4.93;;;;;;;;;;5062485;28;20491;-83
2023/08/12 02:52:56;;;;;;;14.00;4.88;;;;;;;;;;5078895;28;20020;-83
2023/08/12 02:55:22;;;;;;;11.35;5.47;;;;;;;;;;5075036;28;20043;-83
2023/08/12 02:57:47;;;;;;;7.82;4.25;;;;;;;;;;5069718;28;20463;-83
2023/08/12 03:00:13;;;;;;;9.68;4.55;;;;;;;;;;5068854;28;20016;-83
2023/08/12 03:02:42;;;;;;;10.30;5.22;;;;;;;;;;5068347;28;20459;-83
2023/08/12 03:05:07;;;;;;;8.38;4.65;;;;;;;;;;5063413;28;20077;-83
2023/08/12 03:07:32;;;;;;;11.35;4.90;;;;;;;;;;5065665;28;20103;-83
2023/08/12 03:09:58;;;;;;;9.63;4.40;;;;;;;;;;5066550;28;20029;-83
2023/08/12 03:12:23;;;;;;;10.65;4.57;;;;;;;;;;5055268;28;20031;-84
2023/08/12 03:14:48;;;;;;;10.85;4.80;;;;;;;;;;5068643;28;20062;-83
2023/08/12 03:17:14;;;;;;;10.60;4.88;;;;;;;;;;5074158;28;20412;-84
2023/08/12 03:19:42;;;;;;;8.38;4.63;;;;;;;;;;5068613;28;20477;-83
2023/08/12 03:22:10;;;;;;;8.02;4.60;;;;;;;;;;5071482;28;20021;-83
2023/08/12 03:24:36;;;;;;;7.15;4.63;;;;;;;;;;5066965;28;20328;-83
2023/08/12 03:27:01;;;;;;;8.48;5.00;;;;;;;;;;5076332;28;20016;-83
2023/08/12 03:29:26;;;;;;;9.07;5.00;;;;;;;;;;5065916;28;20012;-83
2023/08/12 03:31:52;;;;;;;11.75;5.13;;;;;;;;;;5079284;28;20028;-83
2023/08/12 03:34:17;;;;;;;15.25;5.32;;;;;;;;;;5086030;28;20109;-83
2023/08/12 03:36:50;;;;;;;20.85;5.47;;;;;;;;;;5076071;28;20040;-83
2023/08/12 03:39:16;;;;;;;11.48;5.28;;;;;;;;;;5070573;28;20419;-84
2023/08/12 03:41:41;;;;;;;13.50;5.50;;;;;;;;;;5092053;28;20020;-84
2023/08/12 03:44:06;;;;;;;10.63;5.18;;;;;;;;;;5064635;28;20117;-84
2023/08/12 03:46:32;;;;;;;11.88;5.28;;;;;;;;;;5094035;28;20039;-84
2023/08/12 03:48:57;;;;;;;9.60;5.32;;;;;;;;;;5080767;28;20114;-84
2023/08/12 03:51:22;;;;;;;11.75;5.40;;;;;;;;;;5076358;28;20016;-84
2023/08/12 03:53:48;;;;;;;11.48;5.47;;;;;;;;;;5079684;28;20020;-84
2023/08/12 03:56:16;;;;;;;15.10;5.50;;;;;;;;;;5067209;28;20020;-84
2023/08/12 03:58:42;;;;;;;10.00;5.47;;;;;;;;;;5058649;28;20037;-84
2023/08/12 04:01:09;;;;;;;10.43;5.80;;;;;;;;;;5076739;28;20449;-84
2023/08/12 04:03:34;;;;;;;8.82;5.35;;;;;;;;;;5070407;28;20020;-84
2023/08/12 04:06:00;;;;;;;10.10;5.68;;;;;;;;;;5094850;28;20122;-84
2023/08/12 04:08:25;;;;;;;12.80;6.22;;;;;;;;;;5076147;28;20024;-85
2023/08/12 04:10:51;;;;;;;14.05;6.75;;;;;;;;;;5075782;28;20020;-85
2023/08/12 04:13:16;;;;;;;12.48;6.22;;;;;;;;;;5069733;28;20047;-84
2023/08/12 04:15:42;;;;;;;13.95;6.03;;;;;;;;;;5075486;28;20172;-84
2023/08/12 04:18:08;;;;;;;13.75;6.75;;;;;;;;;;5071192;28;20052;-84
2023/08/12 04:20:33;;;;;;;11.73;7.15;;;;;;;;;;5068174;28;20448;-84
2023/08/12 04:22:59;;;;;;;14.88;6.53;;;;;;;;;;5079364;28;20042;-84
2023/08/12 04:25:25;;;;;;;13.80;6.25;;;;;;;;;;5073837;28;20053;-84
2023/08/12 04:27:50;;;;;;;14.35;7.22;;;;;;;;;;5075137;28;20191;-84
2023/08/12 04:30:16;;;;;;;17.10;7.00;;;;;;;;;;5057750;28;20048;-85
2023/08/12 04:32:41;;;;;;;15.85;7.28;;;;;;;;;;5077858;28;20035;-84
2023/08/12 04:35:07;;;;;;;10.88;6.07;;;;;;;;;;5068869;28;20115;-83
2023/08/12 04:37:32;;;;;;;12.32;6.60;;;;;;;;;;5078197;28;20103;-82
2023/08/12 04:39:58;;;;;;;14.70;6.60;;;;;;;;;;5055252;28;20031;-83
2023/08/12 04:42:23;;;;;;;9.55;5.57;;;;;;;;;;5056742;28;20021;-83
2023/08/12 04:44:48;;;;;;;10.45;6.13;;;;;;;;;;5072284;28;20024;-83
2023/08/12 04:47:14;;;;;;;13.82;6.63;;;;;;;;;;5074821;28;20020;-83
2023/08/12 04:49:39;;;;;;;9.27;6.20;;;;;;;;;;5060156;28;20059;-83
2023/08/12 04:52:04;;;;;;;12.75;6.50;;;;;;;;;;5065878;28;20540;-83
2023/08/12 04:54:30;;;;;;;11.23;5.97;;;;;;;;;;5066797;28;20031;-83
2023/08/12 04:56:56;;;;;;;15.55;6.72;;;;;;;;;;5059486;28;20075;-83
2023/08/12 04:59:22;;;;;;;11.57;7.13;;;;;;;;;;5073578;28;20027;-84
2023/08/12 05:01:47;;;;;;;10.38;6.05;;;;;;;;;;5087745;28;20053;-84
2023/08/12 05:04:12;;;;;;;9.90;5.65;;;;;;;;;;5080751;28;20513;-83
2023/08/12 05:06:40;;;;;;;8.50;5.97;;;;;;;;;;5057023;28;20024;-84
2023/08/12 05:09:06;;;;;;;10.23;5.82;;;;;;;;;;5054283;28;20028;-84
2023/08/12 05:11:31;;;;;;;10.52;6.60;;;;;;;;;;5065282;28;20523;-83
2023/08/12 05:13:56;;;;;;;9.77;5.93;;;;;;;;;;5059647;28;20032;-82
2023/08/12 05:16:21;;;;;;;10.60;5.53;;;;;;;;;;5074102;28;20063;-85
2023/08/12 05:18:47;;;;;;;8.85;6.00;;;;;;;;;;5060380;28;20115;-85
2023/08/12 05:21:12;;;;;;;10.30;5.70;;;;;;;;;;5093103;28;20367;-85
2023/08/12 05:23:37;;;;;;;10.55;6.13;;;;;;;;;;5072140;28;20054;-85
2023/08/12 05:26:03;;;;;;;8.25;5.32;;;;;;;;;;5076486;28;20027;-85
2023/08/12 05:28:31;;;;;;;11.80;6.03;;;;;;;;;;5075475;28;20024;-85
2023/08/12 05:30:57;;;;;;;12.02;6.15;;;;;;;;;;5075103;28;20020;-85
2023/08/12 05:33:22;;;;;;;10.82;6.63;;;;;;;;;;5059422;28;20085;-85
2023/08/12 05:35:48;;;;;;;11.85;7.15;;;;;;;;;;5089358;28;20374;-84
2023/08/12 05:38:13;;;;;;;14.35;7.40;;;;;;;;;;5062763;28;20024;-84
2023/08/12 05:40:39;;;;;;;15.68;8.27;;;;;;;;;;5074299;28;20074;-85
2023/08/12 05:43:04;;;;;;;14.48;7.40;;;;;;;;;;5078534;28;20487;-85
2023/08/12 05:45:32;;;;;;;14.18;8.05;;;;;;;;;;5058003;28;20055;-84
2023/08/12 05:48:00;;;;;;;14.75;7.68;;;;;;;;;;5053613;28;20020;-84
2023/08/12 05:50:33;;;;;;;18.13;8.10;;;;;;;;;;5050878;28;20044;-85
2023/08/12 05:52:58;;;;;;;14.48;8.55;;;;;;;;;;5053619;28;20024;-84
2023/08/12 05:55:23;;;;;;;14.88;8.07;;;;;;;;;;5073175;28;20020;-84
2023/08/12 05:57:48;;;;;;;15.35;7.07;;;;;;;;;;5065288;28;20043;-84
2023/08/12 06:00:14;;;;;;;11.63;7.10;;;;;;;;;;5071880;28;20008;-84
2023/08/12 06:02:39;;;;;;;16.75;8.68;;;;;;;;;;5055240;28;20024;-84
2023/08/12 06:05:07;;;;;;;13.18;8.07;;;;;;;;;;5068597;28;20424;-85
2023/08/12 06:07:32;;;;;;;11.00;7.40;;;;;;;;;;5064364;28;20032;-84
2023/08/12 06:09:57;;;;;;;13.60;7.88;;;;;;;;;;5073334;28;20549;-85
2023/08/12 06:12:23;;;;;;;14.15;7.45;;;;;;;;;;5059498;28;20111;-85
2023/08/12 06:14:48;;;;;;;13.88;7.85;;;;;;;;;;5064871;28;20036;-85
2023/08/12 06:17:13;;;;;;;13.25;7.90;;;;;;;;;;5059499;28;20081;-84
2023/08/12 06:19:38;;;;;;;12.02;7.50;;;;;;;;;;5064304;28;20017;-84
2023/08/12 06:22:04;;;;;;;13.00;7.72;;;;;;;;;;5067425;28;20131;-84
2023/08/12 06:24:29;;;;;;;13.40;7.80;;;;;;;;;;5055760;28;20020;-84
2023/08/12 06:26:54;;;;;;;11.57;7.00;;;;;;;;;;5053326;28;20107;-84
2023/08/12 06:29:20;;;;;;;14.90;7.63;;;;;;;;;;5063244;28;20467;-85
2023/08/12 06:31:45;;;;;;;15.60;7.72;;;;;;;;;;5059775;28;20032;-83
2023/08/12 06:34:10;;;;;;;13.88;7.10;;;;;;;;;;5061129;28;20091;-85
2023/08/12 06:36:39;;;;;;;15.00;7.03;;;;;;;;;;5057204;28;20081;-84
2023/08/12 06:39:04;;;;;;;12.80;6.90;;;;;;;;;;5065595;28;20016;-84
2023/08/12 06:41:29;;;;;;;10.30;6.35;;;;;;;;;;5081323;28;20051;-84
2023/08/12 06:43:55;;;;;;;11.15;6.40;;;;;;;;;;5078577;28;20019;-84
2023/08/12 06:46:20;;;;;;;26.70;6.15;;;;;;;;;;5059722;28;20107;-84
2023/08/12 06:48:46;;;;;;;11.25;6.35;;;;;;;;;;5057363;28;20033;-84
2023/08/12 06:51:11;;;;;;;12.90;6.60;;;;;;;;;;5067027;28;20472;-84
2023/08/12 06:53:37;;;;;;;8.57;5.70;;;;;;;;;;5071329;28;20058;-84
2023/08/12 06:56:02;;;;;;;9.15;4.95;;;;;;;;;;5075058;28;20047;-84
2023/08/12 06:58:28;;;;;;;8.75;5.05;;;;;;;;;;5060459;28;20031;-85
2023/08/12 07:00:53;;;;;;;12.43;4.38;;;;;;;;;;5077842;28;20027;-84
2023/08/12 07:03:19;;;;;;;7.97;4.80;;;;;;;;;;5068038;28;20031;-84
2023/08/12 07:05:44;;;;;;;10.05;3.85;;;;;;;;;;5077084;28;20032;-84
2023/08/12 07:08:12;;;;;;;5.60;3.58;;;;;;;;;;5087829;28;20090;-84
2023/08/12 07:10:38;;;;;;;6.70;3.20;;;;;;;;;;5056956;28;20013;-84
2023/08/12 07:13:03;;;;;;;6.32;3.65;;;;;;;;;;5072226;28;20021;-85
2023/08/12 07:15:31;;;;;;;7.10;3.30;;;;;;;;;;5091592;28;20028;-83
2023/08/12 07:17:57;;;;;;;8.02;3.15;;;;;;;;;;5067156;28;20113;-85
2023/08/12 07:20:23;;;;;;;6.40;2.70;;;;;;;;;;5061422;28;20441;-84
2023/08/12 07:22:48;;;;;;;5.97;2.72;;;;;;;;;;5075165;28;20020;-85
2023/08/12 07:25:13;;;;;;;4.00;2.10;;;;;;;;;;5076729;28;20514;-85
2023/08/12 07:27:39;;;;;;;5.07;2.45;;;;;;;;;;5064876;28;20127;-85
2023/08/12 07:30:04;;;;;;;4.40;2.30;;;;;;;;;;5075389;28;20147;-84
2023/08/12 07:32:29;;;;;;;3.80;2.20;;;;;;;;;;5061117;28;20110;-85
2023/08/12 07:34:55;;;;;;;6.22;2.05;;;;;;;;;;5061483;28;20098;-85
2023/08/12 07:37:20;;;;;;;4.85;1.70;;;;;;;;;;5056324;28;20027;-85
2023/08/12 07:39:45;;;;;;;3.90;1.85;;;;;;;;;;5074378;28;20020;-84
2023/08/12 07:42:12;;;;;;;2.90;1.80;;;;;;;;;;5056331;28;20031;-85
2023/08/12 07:44:37;;;;;;;2.63;1.77;;;;;;;;;;5060029;28;20119;-85
2023/08/12 07:47:02;;;;;;;2.53;1.55;;;;;;;;;;5058337;28;20050;-84
2023/08/12 07:49:28;;;;;;;5.38;1.40;;;;;;;;;;5081698;28;20016;-85
2023/08/12 07:51:53;;;;;;;2.30;1.20;;;;;;;;;;5058233;28;20035;-85
2023/08/12 07:54:18;;;;;;;2.35;1.65;;;;;;;;;;5056761;28;20032;-85
2023/08/12 07:56:44;;;;;;;3.25;1.33;;;;;;;;;;5055547;28;20032;-89
2023/08/12 07:59:10;;;;;;;3.80;1.40;;;;;;;;;;5068419;28;20027;-85
2023/08/12 08:01:35;;;;;;;3.45;1.30;;;;;;;;;;5060857;28;20026;-85
2023/08/12 08:04:00;;;;;;;1.95;1.33;;;;;;;;;;5066488;28;20099;-85
2023/08/12 08:06:27;;;;;;;1.98;1.23;;;;;;;;;;5083388;28;20028;-85
2023/08/12 08:08:52;;;;;;;2.55;1.35;;;;;;;;;;5067020;28;20020;-84
2023/08/12 08:11:18;;;;;;;4.60;1.38;;;;;;;;;;5086069;28;20038;-84
2023/08/12 08:13:43;;;;;;;2.72;1.70;;;;;;;;;;5073805;28;20032;-84
2023/08/12 08:16:11;;;;;;;2.13;1.50;;;;;;;;;;5061033;28;20020;-84
2023/08/12 08:18:36;;;;;;;2.55;1.50;;;;;;;;;;5052996;28;20535;-84
2023/08/12 08:21:02;;;;;;;2.78;1.70;;;;;;;;;;5054646;28;20089;-84
2023/08/12 08:23:28;;;;;;;2.83;1.52;;;;;;;;;;5062992;28;20051;-84
2023/08/12 08:25:54;;;;;;;2.17;1.20;;;;;;;;;;5052407;28;20032;-85
2023/08/12 08:28:21;;;;;;;2.90;1.50;;;;;;;;;;5064275;28;20035;-83
2023/08/12 08:30:47;;;;;;;2.00;1.10;;;;;;;;;;5068865;28;20028;-84
2023/08/12 08:33:15;;;;;;;3.08;1.90;;;;;;;;;;5061166;28;20028;-85
2023/08/12 08:35:40;;;;;;;4.88;2.53;;;;;;;;;;5065761;28;20128;-84
2023/08/12 08:38:06;;;;;;;8.77;3.90;;;;;;;;;;5063036;28;20106;-84
2023/08/12 08:40:31;;;;;;;10.27;5.13;;;;;;;;;;5061520;28;20048;-84
2023/08/12 08:43:00;;;;;;;9.52;5.22;;;;;;;;;;5074309;28;20099;-85
2023/08/12 08:45:26;;;;;;;9.93;5.50;;;;;;;;;;5072497;28;20020;-84
2023/08/12 08:47:52;;;;;;;10.65;5.60;;;;;;;;;;5054028;28;20039;-84
2023/08/12 08:50:17;;;;;;;12.02;6.13;;;;;;;;;;5059289;28;20202;-84
2023/08/12 08:52:43;;;;;;;10.13;5.78;;;;;;;;;;5052991;28;20039;-83
2023/08/12 08:55:09;;;;;;;11.55;5.78;;;;;;;;;;5060035;28;20427;-84
2023/08/12 08:57:37;;;;;;;10.63;4.97;;;;;;;;;;5052106;28;20089;-84
2023/08/12 09:00:03;;;;;;;9.00;4.90;;;;;;;;;;5052597;28;20024;-84
2023/08/12 09:02:31;;;;;;;11.55;5.18;;;;;;;;;;5049626;28;20013;-84
2023/08/12 09:04:57;;;;;;;7.85;4.63;;;;;;;;;;5053501;28;20023;-84
2023/08/12 09:07:23;;;;;;;7.75;4.40;;;;;;;;;;5053398;28;20076;-84
2023/08/12 09:09:50;;;;;;;7.97;4.30;;;;;;;;;;5048840;28;20106;-84
2023/08/12 09:12:16;;;;;;;8.30;4.43;;;;;;;;;;5061073;28;20016;-84
2023/08/12 09:14:42;;;;;;;8.13;4.13;;;;;;;;;;5083792;28;20033;-84
2023/08/12 09:17:08;;;;;;;10.38;4.82;;;;;;;;;;5070932;28;20105;-84
2023/08/12 09:19:33;;;;;;;12.57;5.25;;;;;;;;;;5070352;28;20424;-84
2023/08/12 09:21:58;;;;;;;8.38;4.75;;;;;;;;;;5079902;28;20074;-84
2023/08/12 09:24:24;;;;;;;11.85;5.68;;;;;;;;;;5075720;28;20032;-84
2023/08/12 09:26:55;;;;;;;13.75;5.90;;;;;;;;;;5053619;28;20028;-84
2023/08/12 09:29:38;;;;;;;10.95;5.68;;;;;;;;;;5061646;28;20662;-84
2023/08/12 09:32:22;;;;;;;12.25;6.10;;;;;;;;;;5067755;28;20020;-85
2023/08/12 09:34:52;;;;;;;14.07;6.53;;;;;;;;;;5073073;28;20048;-84
2023/08/12 09:37:18;;;;;;;16.88;7.72;;;;;;;;;;5068797;28;20021;-84
2023/08/12 09:39:44;;;;;;;13.60;7.60;;;;;;;;;;5062236;28;20103;-85
2023/08/12 09:42:13;;;;;;;16.45;8.00;;;;;;;;;;5059433;28;20165;-84
2023/08/12 09:44:41;;;;;;;16.90;8.23;;;;;;;;;;5066177;28;20029;-87
2023/08/12 09:47:10;;;;;;;16.60;8.63;;;;;;;;;;5065234;28;20020;-88
2023/08/12 09:49:41;;;;;;;19.58;10.75;;;;;;;;;;5059347;28;20024;-88
2023/08/12 09:52:07;;;;;;;18.83;9.75;;;;;;;;;;5073068;28;20032;-87
2023/08/12 09:54:32;;;;;;;19.73;11.68;;;;;;;;;;5059909;28;20024;-87
2023/08/12 09:56:59;;;;;;;15.73;8.95;;;;;;;;;;5059224;28;20120;-87
2023/08/12 09:59:24;;;;;;;19.65;8.90;;;;;;;;;;5059143;28;20426;-87
2023/08/12 10:01:52;;;;;;;14.43;8.90;;;;;;;;;;5059436;28;20108;-87
2023/08/12 10:04:18;;;;;;;16.58;9.10;;;;;;;;;;5059926;28;20009;-87
2023/08/12 10:06:43;;;;;;;17.60;11.80;;;;;;;;;;5061191;28;20021;-88
2023/08/12 10:09:09;;;;;;;18.73;9.48;;;;;;;;;;5066110;28;20055;-87
2023/08/12 10:11:35;;;;;;;14.27;8.90;;;;;;;;;;5073031;28;20020;-87
2023/08/12 10:14:01;;;;;;;15.10;8.85;;;;;;;;;;5068034;28;20020;-87
2023/08/12 10:16:29;;;;;;;12.52;6.85;;;;;;;;;;5071619;28;20024;-87
2023/08/12 10:19:02;;;;;;;10.52;7.43;;;;;;;;;;5067855;28;20043;-87
2023/08/12 10:21:28;;;;;;;8.75;5.18;;;;;;;;;;5065192;28;20017;-87
2023/08/12 10:23:54;;;;;;;8.27;4.32;;;;;;;;;;5057857;28;20086;-87
2023/08/12 10:26:19;;;;;;;5.30;3.40;;;;;;;;;;5051759;28;20020;-86
2023/08/12 10:28:45;;;;;;;6.97;3.22;;;;;;;;;;5053886;28;20029;-86
2023/08/12 10:31:13;;;;;;;3.67;2.63;;;;;;;;;;5058659;28;20525;-87
2023/08/12 10:33:38;;;;;;;4.18;2.70;;;;;;;;;;5059141;28;20107;-86
2023/08/12 10:36:06;;;;;;;5.93;2.17;;;;;;;;;;5058983;28;20051;-87
2023/08/12 10:38:32;;;;;;;2.70;1.98;;;;;;;;;;5074802;28;20017;-87
2023/08/12 10:41:16;;;;;;;3.28;2.10;;;;;;;;;;5060923;28;20494;-87
2023/08/12 10:44:04;;;;;;;8.43;2.33;;;;;;;;;;5084106;28;20032;-87
2023/08/12 10:46:36;;;;;;;2.65;1.98;;;;;;;;;;5053378;28;20028;-87
2023/08/12 10:49:06;;;;;;;5.20;2.45;;;;;;;;;;5055692;28;20021;-86
2023/08/12 10:51:41;;;;;;;4.85;2.17;;;;;;;;;;5056016;28;20029;-87
2023/08/12 10:54:18;;;;;;;5.75;2.70;;;;;;;;;;5069005;28;20475;-88
2023/08/12 10:57:11;;;;;;;5.95;2.42;;;;;;;;;;5055572;28;20017;-88
2023/08/12 10:59:45;;;;;;;6.45;1.95;;;;;;;;;;5063580;28;20024;-88
2023/08/12 11:02:23;;;;;;;5.30;1.92;;;;;;;;;;5083717;28;20701;-88
2023/08/12 11:04:50;;;;;;;6.25;1.60;;;;;;;;;;5065039;28;20533;-88
2023/08/12 11:07:19;;;;;;;3.55;1.92;;;;;;;;;;5080316;28;20018;-87
2023/08/12 11:09:45;;;;;;;4.68;1.98;;;;;;;;;;5073203;28;20459;-86
2023/08/12 11:12:13;;;;;;;5.03;2.10;;;;;;;;;;5075039;28;20100;-87
2023/08/12 11:14:49;;;;;;;4.35;2.08;;;;;;;;;;5056949;28;20070;-87
2023/08/12 11:17:18;;;;;;;7.10;2.08;;;;;;;;;;5093552;28;20065;-88
2023/08/12 11:19:43;;;;;;;5.55;2.10;;;;;;;;;;5057651;28;20051;-87
2023/08/12 11:22:12;;;;;;;5.28;2.17;;;;;;;;;;5073990;28;20021;-87
2023/08/12 11:24:38;;;;;;;5.53;2.60;;;;;;;;;;5075560;28;20404;-86
2023/08/12 11:27:03;;;;;;;5.35;2.30;;;;;;;;;;5073150;28;20108;-87
2023/08/12 11:29:29;;;;;;;5.25;2.50;;;;;;;;;;5074919;28;20016;-87
2023/08/12 11:31:54;;;;;;;7.25;2.60;;;;;;;;;;5056644;28;20467;-87
2023/08/12 11:34:22;;;;;;;10.20;2.80;;;;;;;;;;5059731;28;20012;-87
2023/08/12 11:36:49;;;;;;;3.75;2.58;;;;;;;;;;5075738;28;20543;-87
2023/08/12 11:39:15;;;;;;;6.82;2.40;;;;;;;;;;5065529;28;20020;-87
2023/08/12 11:41:40;;;;;;;5.78;2.80;;;;;;;;;;5068288;28;20020;-87
2023/08/12 11:44:11;;;;;;;2.67;2.22;;;;;;;;;;5076210;28;20051;-87
2023/08/12 11:46:36;;;;;;;6.18;2.78;;;;;;;;;;5087437;28;20441;-87
2023/08/12 11:49:01;;;;;;;7.38;2.67;;;;;;;;;;5090841;28;20583;-87
2023/08/12 11:51:27;;;;;;;5.85;3.05;;;;;;;;;;5045231;28;20074;-87
2023/08/12 11:53:52;;;;;;;7.43;2.78;;;;;;;;;;5064056;28;20108;-87
2023/08/12 11:56:20;;;;;;;7.32;2.38;;;;;;;;;;5055151;28;20119;-87
2023/08/12 11:58:48;;;;;;;4.35;2.05;;;;;;;;;;5060183;28;20017;-87
2023/08/12 12:01:13;;;;;;;6.30;2.70;;;;;;;;;;5073347;28;20125;-86
2023/08/12 12:03:38;;;;;;;4.78;1.80;;;;;;;;;;5047546;28;20064;-87
2023/08/12 12:06:04;;;;;;;6.20;1.70;;;;;;;;;;5055072;28;20066;-86
2023/08/12 12:08:31;;;;;;;5.03;1.70;;;;;;;;;;5064124;28;20046;-87
2023/08/12 12:10:56;;;;;;;2.75;1.40;;;;;;;;;;5056126;28;20092;-86
2023/08/12 12:13:23;;;;;;;4.75;1.42;;;;;;;;;;5063411;28;20055;-87
2023/08/12 12:15:48;;;;;;;4.32;1.30;;;;;;;;;;5064135;28;20099;-87
2023/08/12 12:18:14;;;;;;;6.60;1.42;;;;;;;;;;5061662;28;20099;-87
2023/08/12 12:20:54;;;;;;;3.35;1.08;;;;;;;;;;5071729;28;20360;-85
2023/08/12 12:23:19;;;;;;;4.80;1.17;;;;;;;;;;5067370;28;20091;-85
2023/08/12 12:25:48;;;;;;;4.57;1.20;;;;;;;;;;5063150;28;20423;-86
2023/08/12 12:28:13;;;;;;;4.72;1.00;;;;;;;;;;5090266;28;20024;-85
2023/08/12 12:30:38;;;;;;;6.90;1.50;;;;;;;;;;5071282;28;20024;-86
2023/08/12 12:33:04;;;;;;;4.72;1.52;;;;;;;;;;5058465;28;20124;-86
2023/08/12 12:35:33;;;;;;;3.95;1.35;;;;;;;;;;5062314;28;20023;-85
2023/08/12 12:38:01;;;;;;;6.43;1.67;;;;;;;;;;5058483;28;20024;-85
2023/08/12 12:40:26;;;;;;;8.32;1.30;;;;;;;;;;5050299;28;20028;-86
2023/08/12 12:42:51;;;;;;;5.88;1.40;;;;;;;;;;5056215;28;20791;-86
2023/08/12 12:45:17;;;;;;;6.57;1.08;;;;;;;;;;5063556;28;20119;-87
2023/08/12 12:47:42;;;;;;;8.18;1.40;;;;;;;;;;5073670;28;20032;-87
2023/08/12 12:50:08;;;;;;;3.15;1.00;;;;;;;;;;5064043;28;20019;-86
2023/08/12 12:52:36;;;;;;;3.92;0.82;;;;;;;;;;5085021;28;20024;-86
2023/08/12 12:55:04;;;;;;;2.95;1.08;;;;;;;;;;5051080;28;20432;-87
2023/08/12 12:57:29;;;;;;;4.63;0.90;;;;;;;;;;5060515;28;20056;-87
2023/08/12 12:59:57;;;;;;;4.30;0.80;;;;;;;;;;5063962;28;20207;-87
2023/08/12 13:02:23;;;;;;;2.92;0.90;;;;;;;;;;5071872;28;20012;-87
2023/08/12 13:04:49;;;;;;;3.38;0.90;;;;;;;;;;5093160;28;20099;-87
2023/08/12 13:07:17;;;;;;;3.97;1.05;;;;;;;;;;5068928;28;20019;-87
2023/08/12 13:09:45;;;;;;;2.60;0.77;;;;;;;;;;5067012;28;20031;-87
2023/08/12 13:12:10;;;;;;;8.38;1.10;;;;;;;;;;5093334;28;20459;-87
2023/08/12 13:14:35;;;;;;;3.55;0.98;;;;;;;;;;5074881;28;20177;-87
2023/08/12 13:17:00;;;;;;;3.00;0.85;;;;;;;;;;5061090;28;20031;-87
2023/08/12 13:19:26;;;;;;;6.45;0.93;;;;;;;;;;5074429;28;20016;-87
2023/08/12 13:21:51;;;;;;;2.63;0.90;;;;;;;;;;5055601;28;20107;-87
2023/08/12 13:24:16;;;;;;;3.97;1.00;;;;;;;;;;5060027;28;20050;-88
2023/08/12 13:26:42;;;;;;;4.53;1.13;;;;;;;;;;5073688;28;20299;-87
2023/08/12 13:29:07;;;;;;;5.30;1.00;;;;;;;;;;5072571;28;20106;-87
2023/08/12 13:31:35;;;;;;;4.20;0.80;;;;;;;;;;5073653;28;20020;-87
2023/08/12 13:34:00;;;;;;;4.43;1.05;;;;;;;;;;5069519;28;20115;-87
2023/08/12 13:36:28;;;;;;;4.50;0.70;;;;;;;;;;5054484;28;20048;-87
2023/08/12 13:38:55;;;;;;;4.55;0.82;;;;;;;;;;5069183;28;20032;-87
2023/08/12 13:41:21;;;;;;;2.78;0.90;;;;;;;;;;5074663;28;20034;-87
2023/08/12 13:43:47;;;;;;;4.35;1.10;;;;;;;;;;5093051;28;20012;-87
2023/08/12 13:46:12;;;;;;;5.53;0.82;;;;;;;;;;5061070;28;20491;-87
2023/08/12 13:48:38;;;;;;;5.70;0.80;;;;;;;;;;5056606;28;20040;-87
2023/08/12 13:51:03;;;;;;;4.43;0.60;;;;;;;;;;5065707;28;20028;-86
2023/08/12 13:53:29;;;;;;;6.30;0.98;;;;;;;;;;5061270;28;20031;-87
2023/08/12 13:55:54;;;;;;;5.55;1.00;;;;;;;;;;5085649;28;20401;-87
2023/08/12 13:58:19;;;;;;;4.95;0.90;;;;;;;;;;5067000;28;20452;-87
2023/08/12 14:00:45;;;;;;;3.45;0.88;;;;;;;;;;5074858;28;20673;-87
2023/08/12 14:03:10;;;;;;;2.25;0.80;;;;;;;;;;5078356;28;20467;-87
2023/08/12 14:05:36;;;;;;;6.40;0.95;;;;;;;;;;5079428;28;20500;-87
2023/08/12 14:08:01;;;;;;;2.13;0.73;;;;;;;;;;5074838;28;20082;-87
2023/08/12 14:10:27;;;;;;;7.20;0.95;;;;;;;;;;5065866;28;20016;-87
2023/08/12 14:12:52;;;;;;;4.07;0.90;;;;;;;;;;5077758;28;20112;-87
2023/08/12 14:15:17;;;;;;;3.97;0.80;;;;;;;;;;5062953;28;20025;-87
2023/08/12 14:17:46;;;;;;;3.40;1.08;;;;;;;;;;5065334;28;20111;-87
2023/08/12 14:20:11;;;;;;;3.70;0.88;;;;;;;;;;5078297;28;20035;-86
2023/08/12 14:22:36;;;;;;;1.85;0.90;;;;;;;;;;5064887;28;20484;-87
2023/08/12 14:25:03;;;;;;;2.60;0.77;;;;;;;;;;5058322;28;20043;-86
2023/08/12 14:27:29;;;;;;;2.65;0.98;;;;;;;;;;5069268;28;20017;-87
2023/08/12 14:29:54;;;;;;;4.22;0.60;;;;;;;;;;5085435;28;20017;-87
2023/08/12 14:32:19;;;;;;;5.78;1.00;;;;;;;;;;5093286;28;20036;-87